sensor_id;sensor_type;location;lat;lon;timestamp;pressure;altitude;pressure_sealevel;temperature;humidity
77778;BME280;66966;-34.746;138.604;2023-01-28T00:00:10;100762.05;;;31.49;20.16
77778;BME280;66966;-34.746;138.604;2023-01-28T00:02:35;100767.22;;;31.51;20.27
77778;BME280;66966;-34.746;138.604;2023-01-28T00:04:59;100757.62;;;31.54;20.32
77778;BME280;66966;-34.746;138.604;2023-01-28T00:07:24;100754.37;;;31.52;20.19
77778;BME280;66966;-34.746;138.604;2023-01-28T00:09:49;100752.78;;;31.54;19.90
77778;BME280;66966;-34.746;138.604;2023-01-28T00:12:14;100757.59;;;31.61;19.82
77778;BME280;66966;-34.746;138.604;2023-01-28T00:14:40;100758.36;;;31.67;19.69
77778;BME280;66966;-34.746;138.604;2023-01-28T00:17:05;100751.36;;;31.73;19.65
77778;BME280;66966;-34.746;138.604;2023-01-28T00:19:29;100735.70;;;31.61;19.90
77778;BME280;66966;-34.746;138.604;2023-01-28T00:21:55;100724.02;;;31.47;20.07
77778;BME280;66966;-34.746;138.604;2023-01-28T00:24:20;100729.67;;;31.39;20.07
77778;BME280;66966;-34.746;138.604;2023-01-28T00:26:45;100729.24;;;31.39;20.37
77778;BME280;66966;-34.746;138.604;2023-01-28T00:29:10;100727.93;;;31.58;20.49
77778;BME280;66966;-34.746;138.604;2023-01-28T00:31:35;100738.56;;;31.66;20.54
77778;BME280;66966;-34.746;138.604;2023-01-28T00:34:00;100754.68;;;31.76;20.31
77778;BME280;66966;-34.746;138.604;2023-01-28T00:36:26;100755.26;;;31.86;20.13
77778;BME280;66966;-34.746;138.604;2023-01-28T00:38:51;100756.12;;;31.86;19.84
77778;BME280;66966;-34.746;138.604;2023-01-28T00:41:17;100768.25;;;31.79;19.82
77778;BME280;66966;-34.746;138.604;2023-01-28T00:43:41;100771.58;;;31.72;19.75
77778;BME280;66966;-34.746;138.604;2023-01-28T00:46:06;100770.26;;;31.68;20.11
77778;BME280;66966;-34.746;138.604;2023-01-28T00:48:31;100763.54;;;31.27;20.71
77778;BME280;66966;-34.746;138.604;2023-01-28T00:50:56;100759.20;;;31.44;21.02
77778;BME280;66966;-34.746;138.604;2023-01-28T00:53:20;100736.28;;;31.65;21.10
77778;BME280;66966;-34.746;138.604;2023-01-28T00:55:45;100707.72;;;31.52;20.89
77778;BME280;66966;-34.746;138.604;2023-01-28T00:58:11;100695.57;;;31.73;20.85
77778;BME280;66966;-34.746;138.604;2023-01-28T01:00:36;100692.78;;;31.72;20.78
77778;BME280;66966;-34.746;138.604;2023-01-28T01:03:01;100691.91;;;31.67;20.73
77778;BME280;66966;-34.746;138.604;2023-01-28T01:05:26;100678.59;;;31.60;20.54
77778;BME280;66966;-34.746;138.604;2023-01-28T01:07:51;100673.06;;;31.87;20.27
77778;BME280;66966;-34.746;138.604;2023-01-28T01:10:18;100678.81;;;31.60;20.24
77778;BME280;66966;-34.746;138.604;2023-01-28T01:12:41;100697.68;;;31.74;19.89
77778;BME280;66966;-34.746;138.604;2023-01-28T01:15:08;100721.23;;;31.73;19.87
77778;BME280;66966;-34.746;138.604;2023-01-28T01:17:31;100742.03;;;31.91;20.07
77778;BME280;66966;-34.746;138.604;2023-01-28T01:19:56;100746.64;;;31.50;20.69
77778;BME280;66966;-34.746;138.604;2023-01-28T01:22:21;100743.72;;;31.57;21.45
77778;BME280;66966;-34.746;138.604;2023-01-28T01:24:47;100744.90;;;31.24;22.36
77778;BME280;66966;-34.746;138.604;2023-01-28T01:27:12;100744.24;;;31.12;23.98
77778;BME280;66966;-34.746;138.604;2023-01-28T01:29:36;100733.76;;;31.24;24.42
77778;BME280;66966;-34.746;138.604;2023-01-28T01:32:01;100721.69;;;31.45;24.47
77778;BME280;66966;-34.746;138.604;2023-01-28T01:34:26;100701.52;;;31.11;24.44
77778;BME280;66966;-34.746;138.604;2023-01-28T01:36:51;100687.37;;;31.56;24.40
77778;BME280;66966;-34.746;138.604;2023-01-28T01:39:17;100680.28;;;31.04;24.00
77778;BME280;66966;-34.746;138.604;2023-01-28T01:41:42;100677.59;;;31.13;24.13
77778;BME280;66966;-34.746;138.604;2023-01-28T01:46:35;100660.80;;;31.41;23.62
77778;BME280;66966;-34.746;138.604;2023-01-28T01:48:58;100674.01;;;31.52;22.62
77778;BME280;66966;-34.746;138.604;2023-01-28T01:51:25;100727.66;;;31.51;22.48
77778;BME280;66966;-34.746;138.604;2023-01-28T01:53:50;100760.06;;;31.19;22.43
77778;BME280;66966;-34.746;138.604;2023-01-28T01:56:15;100777.92;;;31.34;23.55
77778;BME280;66966;-34.746;138.604;2023-01-28T01:58:40;100789.94;;;31.32;24.14
77778;BME280;66966;-34.746;138.604;2023-01-28T02:01:02;100786.00;;;30.66;24.07
77778;BME280;66966;-34.746;138.604;2023-01-28T02:03:30;100790.04;;;30.53;24.48
77778;BME280;66966;-34.746;138.604;2023-01-28T02:05:52;100804.18;;;30.36;24.90
77778;BME280;66966;-34.746;138.604;2023-01-28T02:08:18;100808.55;;;30.17;25.97
77778;BME280;66966;-34.746;138.604;2023-01-28T02:10:42;100808.98;;;30.16;26.22
77778;BME280;66966;-34.746;138.604;2023-01-28T02:13:07;100804.50;;;30.06;27.14
77778;BME280;66966;-34.746;138.604;2023-01-28T02:15:33;100806.69;;;29.79;27.23
77778;BME280;66966;-34.746;138.604;2023-01-28T02:17:58;100809.61;;;29.46;27.09
77778;BME280;66966;-34.746;138.604;2023-01-28T02:20:25;100805.60;;;29.17;26.86
77778;BME280;66966;-34.746;138.604;2023-01-28T02:25:23;100828.28;;;29.34;26.17
77778;BME280;66966;-34.746;138.604;2023-01-28T02:30:08;100837.19;;;29.33;26.76
77778;BME280;66966;-34.746;138.604;2023-01-28T02:32:32;100841.90;;;29.23;27.10
77778;BME280;66966;-34.746;138.604;2023-01-28T02:34:58;100848.99;;;29.18;27.15
77778;BME280;66966;-34.746;138.604;2023-01-28T02:37:23;100859.26;;;29.52;27.65
77778;BME280;66966;-34.746;138.604;2023-01-28T02:39:48;100862.34;;;29.36;27.10
77778;BME280;66966;-34.746;138.604;2023-01-28T02:42:11;100859.14;;;28.79;27.63
77778;BME280;66966;-34.746;138.604;2023-01-28T02:44:34;100864.36;;;28.55;28.07
77778;BME280;66966;-34.746;138.604;2023-01-28T02:46:59;100858.65;;;29.12;28.22
77778;BME280;66966;-34.746;138.604;2023-01-28T02:49:29;100854.83;;;29.15;28.48
77778;BME280;66966;-34.746;138.604;2023-01-28T02:52:03;100856.95;;;28.88;28.41
77778;BME280;66966;-34.746;138.604;2023-01-28T02:54:20;100864.90;;;28.83;28.36
77778;BME280;66966;-34.746;138.604;2023-01-28T02:56:44;100876.77;;;28.75;28.54
77778;BME280;66966;-34.746;138.604;2023-01-28T02:59:11;100866.41;;;28.80;28.67
77778;BME280;66966;-34.746;138.604;2023-01-28T03:01:36;100858.95;;;28.55;29.41
77778;BME280;66966;-34.746;138.604;2023-01-28T03:04:00;100846.93;;;28.30;30.46
77778;BME280;66966;-34.746;138.604;2023-01-28T03:06:24;100841.34;;;28.28;31.20
77778;BME280;66966;-34.746;138.604;2023-01-28T03:08:49;100833.91;;;28.22;31.49
77778;BME280;66966;-34.746;138.604;2023-01-28T03:11:11;100814.24;;;28.27;31.51
77778;BME280;66966;-34.746;138.604;2023-01-28T03:13:37;100778.11;;;28.34;31.59
77778;BME280;66966;-34.746;138.604;2023-01-28T03:16:01;100736.35;;;28.36;32.05
77778;BME280;66966;-34.746;138.604;2023-01-28T03:18:31;100720.20;;;28.46;32.02
77778;BME280;66966;-34.746;138.604;2023-01-28T03:20:58;100734.82;;;28.69;32.16
77778;BME280;66966;-34.746;138.604;2023-01-28T03:23:21;100757.59;;;28.22;31.88
77778;BME280;66966;-34.746;138.604;2023-01-28T03:25:45;100770.88;;;28.71;32.03
77778;BME280;66966;-34.746;138.604;2023-01-28T03:28:09;100761.28;;;28.52;31.35
77778;BME280;66966;-34.746;138.604;2023-01-28T03:30:37;100759.77;;;28.58;31.33
77778;BME280;66966;-34.746;138.604;2023-01-28T03:32:58;100751.23;;;28.59;31.41
77778;BME280;66966;-34.746;138.604;2023-01-28T03:35:23;100738.54;;;28.61;30.74
77778;BME280;66966;-34.746;138.604;2023-01-28T03:37:48;100755.70;;;28.43;31.29
77778;BME280;66966;-34.746;138.604;2023-01-28T03:40:14;100787.82;;;28.95;31.37
77778;BME280;66966;-34.746;138.604;2023-01-28T03:42:38;100815.71;;;29.03;30.88
77778;BME280;66966;-34.746;138.604;2023-01-28T03:45:04;100841.82;;;29.07;29.02
77778;BME280;66966;-34.746;138.604;2023-01-28T03:47:30;100850.28;;;29.54;28.68
77778;BME280;66966;-34.746;138.604;2023-01-28T03:49:56;100849.03;;;28.82;28.93
77778;BME280;66966;-34.746;138.604;2023-01-28T03:52:20;100842.86;;;28.91;28.38
77778;BME280;66966;-34.746;138.604;2023-01-28T03:54:44;100851.39;;;29.61;28.47
77778;BME280;66966;-34.746;138.604;2023-01-28T03:57:09;100846.08;;;29.23;28.67
77778;BME280;66966;-34.746;138.604;2023-01-28T03:59:34;100837.66;;;29.35;28.28
77778;BME280;66966;-34.746;138.604;2023-01-28T04:01:59;100826.47;;;29.21;28.69
77778;BME280;66966;-34.746;138.604;2023-01-28T04:04:24;100815.87;;;29.39;28.73
77778;BME280;66966;-34.746;138.604;2023-01-28T04:06:50;100800.80;;;29.60;28.20
77778;BME280;66966;-34.746;138.604;2023-01-28T04:09:14;100787.69;;;29.59;27.29
77778;BME280;66966;-34.746;138.604;2023-01-28T04:11:39;100790.49;;;29.65;27.97
77778;BME280;66966;-34.746;138.604;2023-01-28T04:14:05;100788.22;;;29.86;27.87
77778;BME280;66966;-34.746;138.604;2023-01-28T04:16:30;100775.47;;;29.85;27.76
77778;BME280;66966;-34.746;138.604;2023-01-28T04:18:55;100765.18;;;30.34;27.43
77778;BME280;66966;-34.746;138.604;2023-01-28T04:21:20;100755.74;;;30.27;27.61
77778;BME280;66966;-34.746;138.604;2023-01-28T04:23:45;100746.59;;;30.55;27.09
77778;BME280;66966;-34.746;138.604;2023-01-28T04:26:11;100750.91;;;30.72;26.99
77778;BME280;66966;-34.746;138.604;2023-01-28T04:28:35;100759.20;;;30.74;26.48
77778;BME280;66966;-34.746;138.604;2023-01-28T04:31:00;100766.17;;;30.91;26.05
77778;BME280;66966;-34.746;138.604;2023-01-28T04:33:26;100766.00;;;30.58;25.42
77778;BME280;66966;-34.746;138.604;2023-01-28T04:35:51;100759.26;;;31.06;24.74
77778;BME280;66966;-34.746;138.604;2023-01-28T04:38:16;100755.20;;;31.13;24.13
77778;BME280;66966;-34.746;138.604;2023-01-28T04:40:41;100747.82;;;30.90;23.54
77778;BME280;66966;-34.746;138.604;2023-01-28T04:43:06;100739.39;;;31.17;23.75
77778;BME280;66966;-34.746;138.604;2023-01-28T04:45:32;100738.71;;;30.89;23.53
77778;BME280;66966;-34.746;138.604;2023-01-28T04:47:56;100735.21;;;31.02;23.90
77778;BME280;66966;-34.746;138.604;2023-01-28T04:50:21;100723.52;;;30.83;24.06
77778;BME280;66966;-34.746;138.604;2023-01-28T04:52:46;100706.80;;;31.12;23.94
77778;BME280;66966;-34.746;138.604;2023-01-28T04:55:11;100690.12;;;30.90;24.24
77778;BME280;66966;-34.746;138.604;2023-01-28T04:57:37;100680.52;;;31.03;24.21
77778;BME280;66966;-34.746;138.604;2023-01-28T05:00:02;100670.50;;;31.15;24.13
77778;BME280;66966;-34.746;138.604;2023-01-28T05:02:27;100671.72;;;31.17;23.93
77778;BME280;66966;-34.746;138.604;2023-01-28T05:04:52;100687.07;;;31.18;23.96
77778;BME280;66966;-34.746;138.604;2023-01-28T05:07:17;100700.14;;;31.07;23.63
77778;BME280;66966;-34.746;138.604;2023-01-28T05:09:42;100707.40;;;31.15;23.36
77778;BME280;66966;-34.746;138.604;2023-01-28T05:12:07;100698.29;;;31.37;23.61
77778;BME280;66966;-34.746;138.604;2023-01-28T05:14:32;100689.36;;;31.09;24.03
77778;BME280;66966;-34.746;138.604;2023-01-28T05:16:57;100690.35;;;31.08;23.80
77778;BME280;66966;-34.746;138.604;2023-01-28T05:19:22;100693.24;;;31.03;23.76
77778;BME280;66966;-34.746;138.604;2023-01-28T05:21:47;100700.10;;;31.21;23.56
77778;BME280;66966;-34.746;138.604;2023-01-28T05:24:12;100703.73;;;31.18;23.54
77778;BME280;66966;-34.746;138.604;2023-01-28T05:26:38;100702.53;;;30.88;23.83
77778;BME280;66966;-34.746;138.604;2023-01-28T05:29:03;100697.48;;;31.12;23.86
77778;BME280;66966;-34.746;138.604;2023-01-28T05:31:27;100699.19;;;30.85;23.72
77778;BME280;66966;-34.746;138.604;2023-01-28T05:33:53;100697.84;;;31.08;23.78
77778;BME280;66966;-34.746;138.604;2023-01-28T05:36:18;100692.44;;;31.08;23.94
77778;BME280;66966;-34.746;138.604;2023-01-28T05:38:43;100696.31;;;31.05;23.82
77778;BME280;66966;-34.746;138.604;2023-01-28T05:41:08;100701.06;;;31.07;23.90
77778;BME280;66966;-34.746;138.604;2023-01-28T05:43:33;100701.09;;;30.65;23.96
77778;BME280;66966;-34.746;138.604;2023-01-28T05:45:58;100706.16;;;30.56;24.74
77778;BME280;66966;-34.746;138.604;2023-01-28T05:48:23;100718.72;;;31.06;25.35
77778;BME280;66966;-34.746;138.604;2023-01-28T05:50:48;100723.33;;;30.58;25.54
77778;BME280;66966;-34.746;138.604;2023-01-28T05:53:13;100717.03;;;30.76;25.70
77778;BME280;66966;-34.746;138.604;2023-01-28T05:55:38;100718.49;;;30.68;25.74
77778;BME280;66966;-34.746;138.604;2023-01-28T05:58:03;100724.10;;;30.63;26.15
77778;BME280;66966;-34.746;138.604;2023-01-28T06:00:29;100723.08;;;30.59;26.55
77778;BME280;66966;-34.746;138.604;2023-01-28T06:02:54;100727.06;;;29.95;27.03
77778;BME280;66966;-34.746;138.604;2023-01-28T06:05:19;100732.63;;;30.57;27.17
77778;BME280;66966;-34.746;138.604;2023-01-28T06:07:45;100735.28;;;30.00;27.47
77778;BME280;66966;-34.746;138.604;2023-01-28T06:10:10;100736.99;;;29.87;27.84
77778;BME280;66966;-34.746;138.604;2023-01-28T06:12:34;100727.55;;;30.02;28.35
77778;BME280;66966;-34.746;138.604;2023-01-28T06:15:00;100720.30;;;30.05;28.65
77778;BME280;66966;-34.746;138.604;2023-01-28T06:17:24;100716.65;;;30.02;29.26
77778;BME280;66966;-34.746;138.604;2023-01-28T06:19:50;100715.30;;;29.86;30.11
77778;BME280;66966;-34.746;138.604;2023-01-28T06:22:15;100705.20;;;29.75;30.84
77778;BME280;66966;-34.746;138.604;2023-01-28T06:24:40;100702.09;;;30.21;31.03
77778;BME280;66966;-34.746;138.604;2023-01-28T06:27:05;100697.23;;;30.00;31.21
77778;BME280;66966;-34.746;138.604;2023-01-28T06:29:30;100693.36;;;30.17;30.93
77778;BME280;66966;-34.746;138.604;2023-01-28T06:31:55;100692.69;;;29.88;30.79
77778;BME280;66966;-34.746;138.604;2023-01-28T06:34:20;100699.20;;;29.82;30.94
77778;BME280;66966;-34.746;138.604;2023-01-28T06:36:45;100706.82;;;29.68;30.68
77778;BME280;66966;-34.746;138.604;2023-01-28T06:39:11;100723.39;;;29.32;30.69
77778;BME280;66966;-34.746;138.604;2023-01-28T06:41:36;100727.50;;;29.73;29.95
77778;BME280;66966;-34.746;138.604;2023-01-28T06:44:01;100732.77;;;29.62;30.73
77778;BME280;66966;-34.746;138.604;2023-01-28T06:46:26;100732.70;;;29.55;31.67
77778;BME280;66966;-34.746;138.604;2023-01-28T06:48:51;100729.05;;;29.53;32.09
77778;BME280;66966;-34.746;138.604;2023-01-28T06:51:16;100741.52;;;29.44;31.73
77778;BME280;66966;-34.746;138.604;2023-01-28T06:53:41;100750.97;;;29.42;32.87
77778;BME280;66966;-34.746;138.604;2023-01-28T06:56:07;100753.06;;;29.23;33.14
77778;BME280;66966;-34.746;138.604;2023-01-28T06:58:32;100751.59;;;29.28;33.26
77778;BME280;66966;-34.746;138.604;2023-01-28T07:00:57;100757.47;;;29.24;33.10
77778;BME280;66966;-34.746;138.604;2023-01-28T07:03:22;100760.27;;;29.31;33.41
77778;BME280;66966;-34.746;138.604;2023-01-28T07:05:47;100762.58;;;28.71;33.45
77778;BME280;66966;-34.746;138.604;2023-01-28T07:08:13;100771.84;;;28.93;33.85
77778;BME280;66966;-34.746;138.604;2023-01-28T07:10:38;100779.02;;;28.48;34.32
77778;BME280;66966;-34.746;138.604;2023-01-28T07:13:03;100787.19;;;28.48;34.13
77778;BME280;66966;-34.746;138.604;2023-01-28T07:15:28;100804.33;;;28.67;34.62
77778;BME280;66966;-34.746;138.604;2023-01-28T07:17:53;100813.30;;;28.41;34.92
77778;BME280;66966;-34.746;138.604;2023-01-28T07:20:19;100812.86;;;28.27;35.35
77778;BME280;66966;-34.746;138.604;2023-01-28T07:22:44;100816.59;;;28.21;36.23
77778;BME280;66966;-34.746;138.604;2023-01-28T07:25:10;100827.16;;;28.23;36.42
77778;BME280;66966;-34.746;138.604;2023-01-28T07:27:34;100830.16;;;28.28;36.00
77778;BME280;66966;-34.746;138.604;2023-01-28T07:29:59;100841.16;;;28.32;35.88
77778;BME280;66966;-34.746;138.604;2023-01-28T07:32:25;100855.21;;;28.00;36.94
77778;BME280;66966;-34.746;138.604;2023-01-28T07:34:49;100874.36;;;27.79;37.16
77778;BME280;66966;-34.746;138.604;2023-01-28T07:37:15;100881.69;;;27.69;36.98
77778;BME280;66966;-34.746;138.604;2023-01-28T07:39:40;100883.16;;;27.55;37.18
77778;BME280;66966;-34.746;138.604;2023-01-28T07:42:05;100889.62;;;27.21;37.66
77778;BME280;66966;-34.746;138.604;2023-01-28T07:44:31;100882.31;;;27.34;37.04
77778;BME280;66966;-34.746;138.604;2023-01-28T07:46:56;100892.70;;;27.03;36.87
77778;BME280;66966;-34.746;138.604;2023-01-28T07:49:21;100888.75;;;26.84;37.12
77778;BME280;66966;-34.746;138.604;2023-01-28T07:51:46;100899.28;;;26.83;37.25
77778;BME280;66966;-34.746;138.604;2023-01-28T07:54:11;100897.43;;;26.94;37.25
77778;BME280;66966;-34.746;138.604;2023-01-28T07:56:36;100899.17;;;26.96;37.62
77778;BME280;66966;-34.746;138.604;2023-01-28T07:59:02;100902.14;;;26.98;37.44
77778;BME280;66966;-34.746;138.604;2023-01-28T08:01:27;100897.38;;;27.03;37.05
77778;BME280;66966;-34.746;138.604;2023-01-28T08:03:52;100897.47;;;26.96;37.12
77778;BME280;66966;-34.746;138.604;2023-01-28T08:06:17;100903.00;;;26.66;36.79
77778;BME280;66966;-34.746;138.604;2023-01-28T08:08:42;100898.28;;;26.93;36.99
77778;BME280;66966;-34.746;138.604;2023-01-28T08:11:08;100898.92;;;26.76;37.23
77778;BME280;66966;-34.746;138.604;2023-01-28T08:13:33;100900.02;;;27.05;36.89
77778;BME280;66966;-34.746;138.604;2023-01-28T08:15:58;100891.51;;;26.79;37.08
77778;BME280;66966;-34.746;138.604;2023-01-28T08:18:23;100898.50;;;26.92;38.09
77778;BME280;66966;-34.746;138.604;2023-01-28T08:20:48;100910.87;;;26.78;38.47
77778;BME280;66966;-34.746;138.604;2023-01-28T08:23:15;100911.47;;;26.77;38.35
77778;BME280;66966;-34.746;138.604;2023-01-28T08:25:40;100909.88;;;26.75;39.17
77778;BME280;66966;-34.746;138.604;2023-01-28T08:28:05;100910.85;;;26.66;39.53
77778;BME280;66966;-34.746;138.604;2023-01-28T08:30:30;100910.97;;;26.71;38.98
77778;BME280;66966;-34.746;138.604;2023-01-28T08:32:56;100911.10;;;26.86;39.15
77778;BME280;66966;-34.746;138.604;2023-01-28T08:35:20;100910.70;;;26.76;39.57
77778;BME280;66966;-34.746;138.604;2023-01-28T08:37:45;100906.96;;;26.64;39.82
77778;BME280;66966;-34.746;138.604;2023-01-28T08:40:12;100911.22;;;26.56;40.00
77778;BME280;66966;-34.746;138.604;2023-01-28T08:42:37;100917.69;;;26.54;39.93
77778;BME280;66966;-34.746;138.604;2023-01-28T08:45:02;100925.71;;;26.56;39.74
77778;BME280;66966;-34.746;138.604;2023-01-28T08:47:28;100927.27;;;26.69;39.41
77778;BME280;66966;-34.746;138.604;2023-01-28T08:49:53;100932.60;;;26.76;39.58
77778;BME280;66966;-34.746;138.604;2023-01-28T08:52:19;100947.04;;;26.75;39.48
77778;BME280;66966;-34.746;138.604;2023-01-28T08:54:44;100955.62;;;26.81;39.43
77778;BME280;66966;-34.746;138.604;2023-01-28T08:57:09;100959.10;;;26.80;39.26
77778;BME280;66966;-34.746;138.604;2023-01-28T08:59:34;100958.61;;;26.99;39.01
77778;BME280;66966;-34.746;138.604;2023-01-28T09:01:59;100960.59;;;27.09;38.79
77778;BME280;66966;-34.746;138.604;2023-01-28T09:04:24;100956.65;;;26.54;38.93
77778;BME280;66966;-34.746;138.604;2023-01-28T09:06:50;100952.77;;;26.82;39.03
77778;BME280;66966;-34.746;138.604;2023-01-28T09:09:15;100949.03;;;26.70;39.26
77778;BME280;66966;-34.746;138.604;2023-01-28T09:11:40;100946.78;;;26.57;38.85
77778;BME280;66966;-34.746;138.604;2023-01-28T09:14:05;100943.80;;;26.26;39.00
77778;BME280;66966;-34.746;138.604;2023-01-28T09:16:31;100944.32;;;26.22;38.94
77778;BME280;66966;-34.746;138.604;2023-01-28T09:18:56;100937.80;;;26.43;38.69
77778;BME280;66966;-34.746;138.604;2023-01-28T09:21:21;100937.75;;;26.33;38.33
77778;BME280;66966;-34.746;138.604;2023-01-28T09:23:47;100934.41;;;26.49;38.19
77778;BME280;66966;-34.746;138.604;2023-01-28T09:26:12;100943.60;;;26.27;38.31
77778;BME280;66966;-34.746;138.604;2023-01-28T09:28:37;100955.96;;;26.25;38.27
77778;BME280;66966;-34.746;138.604;2023-01-28T09:31:03;100951.43;;;26.23;38.28
77778;BME280;66966;-34.746;138.604;2023-01-28T09:33:27;100949.82;;;26.03;38.32
77778;BME280;66966;-34.746;138.604;2023-01-28T09:35:53;100944.35;;;25.94;38.93
77778;BME280;66966;-34.746;138.604;2023-01-28T09:38:18;100949.98;;;25.90;39.25
77778;BME280;66966;-34.746;138.604;2023-01-28T09:40:44;100946.69;;;26.05;39.61
77778;BME280;66966;-34.746;138.604;2023-01-28T09:45:37;100952.86;;;25.75;40.19
77778;BME280;66966;-34.746;138.604;2023-01-28T09:48:00;100953.58;;;25.77;40.41
77778;BME280;66966;-34.746;138.604;2023-01-28T09:50:30;100956.30;;;25.98;40.22
77778;BME280;66966;-34.746;138.604;2023-01-28T09:52:49;100959.20;;;25.73;40.45
77778;BME280;66966;-34.746;138.604;2023-01-28T09:55:21;100964.69;;;25.73;40.47
77778;BME280;66966;-34.746;138.604;2023-01-28T09:57:45;100967.31;;;25.72;40.44
77778;BME280;66966;-34.746;138.604;2023-01-28T10:00:12;100964.70;;;25.59;40.43
77778;BME280;66966;-34.746;138.604;2023-01-28T10:02:40;100963.13;;;25.46;40.25
77778;BME280;66966;-34.746;138.604;2023-01-28T10:05:02;100966.48;;;25.62;40.43
77778;BME280;66966;-34.746;138.604;2023-01-28T10:07:30;100962.14;;;25.35;40.46
77778;BME280;66966;-34.746;138.604;2023-01-28T10:09:49;100958.97;;;25.28;40.96
77778;BME280;66966;-34.746;138.604;2023-01-28T10:12:22;100944.48;;;25.53;40.95
77778;BME280;66966;-34.746;138.604;2023-01-28T10:14:47;100938.40;;;25.21;41.08
77778;BME280;66966;-34.746;138.604;2023-01-28T10:17:09;100947.88;;;25.18;41.22
77778;BME280;66966;-34.746;138.604;2023-01-28T10:19:29;100953.21;;;25.16;41.40
77778;BME280;66966;-34.746;138.604;2023-01-28T10:21:55;100943.32;;;25.21;41.31
77778;BME280;66966;-34.746;138.604;2023-01-28T10:24:19;100946.30;;;25.43;41.28
77778;BME280;66966;-34.746;138.604;2023-01-28T10:26:43;100935.67;;;25.68;41.09
77778;BME280;66966;-34.746;138.604;2023-01-28T10:29:14;100954.09;;;25.21;41.06
77778;BME280;66966;-34.746;138.604;2023-01-28T10:31:37;100954.23;;;25.49;40.91
77778;BME280;66966;-34.746;138.604;2023-01-28T10:33:58;100950.32;;;25.51;40.93
77778;BME280;66966;-34.746;138.604;2023-01-28T10:36:23;100970.14;;;25.55;41.17
77778;BME280;66966;-34.746;138.604;2023-01-28T10:38:49;100961.19;;;25.54;41.10
77778;BME280;66966;-34.746;138.604;2023-01-28T10:41:19;100961.32;;;25.30;40.95
77778;BME280;66966;-34.746;138.604;2023-01-28T10:43:41;100955.13;;;25.16;41.09
77778;BME280;66966;-34.746;138.604;2023-01-28T10:46:09;100959.99;;;25.59;41.60
77778;BME280;66966;-34.746;138.604;2023-01-28T10:48:33;100959.56;;;25.24;41.62
77778;BME280;66966;-34.746;138.604;2023-01-28T10:50:57;100953.37;;;24.93;41.59
77778;BME280;66966;-34.746;138.604;2023-01-28T10:53:32;100926.18;;;25.30;41.82
77778;BME280;66966;-34.746;138.604;2023-01-28T10:55:51;100920.83;;;25.10;41.86
77778;BME280;66966;-34.746;138.604;2023-01-28T10:58:17;100924.07;;;25.28;42.04
77778;BME280;66966;-34.746;138.604;2023-01-28T11:00:37;100928.17;;;25.10;41.92
77778;BME280;66966;-34.746;138.604;2023-01-28T11:03:01;100928.04;;;25.10;41.85
77778;BME280;66966;-34.746;138.604;2023-01-28T11:05:29;100939.73;;;25.37;41.85
77778;BME280;66966;-34.746;138.604;2023-01-28T11:08:03;100933.77;;;25.37;41.68
77778;BME280;66966;-34.746;138.604;2023-01-28T11:10:25;100935.28;;;25.04;41.71
77778;BME280;66966;-34.746;138.604;2023-01-28T11:12:42;100940.06;;;25.22;41.93
77778;BME280;66966;-34.746;138.604;2023-01-28T11:15:16;100939.35;;;24.98;41.73
77778;BME280;66966;-34.746;138.604;2023-01-28T11:17:35;100945.64;;;25.12;42.08
77778;BME280;66966;-34.746;138.604;2023-01-28T11:20:08;100947.13;;;25.10;42.28
77778;BME280;66966;-34.746;138.604;2023-01-28T11:22:29;100953.06;;;24.89;42.04
77778;BME280;66966;-34.746;138.604;2023-01-28T11:24:49;100946.41;;;25.14;42.21
77778;BME280;66966;-34.746;138.604;2023-01-28T11:27:16;100940.89;;;24.82;42.08
77778;BME280;66966;-34.746;138.604;2023-01-28T11:29:40;100941.43;;;24.70;42.36
77778;BME280;66966;-34.746;138.604;2023-01-28T11:32:05;100937.51;;;24.63;42.52
77778;BME280;66966;-34.746;138.604;2023-01-28T11:34:33;100937.70;;;24.54;42.77
77778;BME280;66966;-34.746;138.604;2023-01-28T11:37:01;100943.10;;;24.48;43.00
77778;BME280;66966;-34.746;138.604;2023-01-28T11:39:22;100957.48;;;24.49;42.91
77778;BME280;66966;-34.746;138.604;2023-01-28T11:41:47;100972.55;;;24.84;42.69
77778;BME280;66966;-34.746;138.604;2023-01-28T11:44:15;100975.26;;;24.87;42.90
77778;BME280;66966;-34.746;138.604;2023-01-28T11:49:08;100997.16;;;24.99;42.35
77778;BME280;66966;-34.746;138.604;2023-01-28T11:51:35;100982.13;;;24.99;42.44
77778;BME280;66966;-34.746;138.604;2023-01-28T11:54:02;100981.55;;;25.02;42.25
77778;BME280;66966;-34.746;138.604;2023-01-28T11:56:28;100969.57;;;24.72;42.50
77778;BME280;66966;-34.746;138.604;2023-01-28T11:58:49;100958.67;;;24.76;42.69
77778;BME280;66966;-34.746;138.604;2023-01-28T12:01:12;100959.63;;;24.73;42.81
77778;BME280;66966;-34.746;138.604;2023-01-28T12:03:42;100968.35;;;24.78;42.99
77778;BME280;66966;-34.746;138.604;2023-01-28T12:08:27;100951.61;;;24.51;43.20
77778;BME280;66966;-34.746;138.604;2023-01-28T12:11:00;100939.61;;;24.76;43.56
77778;BME280;66966;-34.746;138.604;2023-01-28T12:13:26;100934.69;;;24.75;43.74
77778;BME280;66966;-34.746;138.604;2023-01-28T12:15:52;100926.27;;;24.75;43.73
77778;BME280;66966;-34.746;138.604;2023-01-28T12:18:16;100929.14;;;24.71;43.66
77778;BME280;66966;-34.746;138.604;2023-01-28T12:20:34;100937.92;;;24.81;43.80
77778;BME280;66966;-34.746;138.604;2023-01-28T12:27:51;100941.06;;;24.65;43.95